Saturday, November 18, 2017, 10:02 PM EST
Back to Local

KPWM, Portland International Jetport

Location: Portland, ME, United States Lat: 43.65
Local Time: 10:02 PM EST ( 3:02 GMT) Lon: -70.3
Time Zone: US/Eastern Elev: 75 ft

Show me the last for .
Show Decoded

2017-11-18 21:51 METAR KPWM 190251Z VRB05KT 3SM RA BR BKN005 BKN009 OVC016 06/04 A2957 RMK AO2
                 SLP015 P0009 60013 T00560044 58044 =
2017-11-18 21:02 METAR KPWM 190202Z VRB04KT 3SM -RA BR BKN007 OVC012 04/03 A2961 RMK AO2 P0001
                 T00390033 =
2017-11-18 20:51 METAR KPWM 190151Z VRB06KT 3SM -RA BR FEW005 OVC011 04/03 A2962 RMK AO2 SLP031
                 P0003 T00390033 =
2017-11-18 20:33 METAR KPWM 190133Z VRB04KT 4SM -RA BR FEW005 BKN011 OVC018 04/03 A2963 RMK AO2
                 P0002 T00390033 =
2017-11-18 20:14 METAR KPWM 190114Z VRB03KT 3SM -RA BR FEW013 BKN027 OVC040 04/03 A2965 RMK AO2
                 P0001 T00440033 =
2017-11-18 19:51 METAR KPWM 190051Z 14006KT 3SM -RA BR FEW013 BKN037 OVC046 04/03 A2966 RMK AO2
                 RAB2353 SLP045 P0001 T00390028 =
2017-11-18 18:51 METAR KPWM 182351Z 13007KT 7SM FEW028 BKN036 OVC044 04/M01 A2970 RMK AO2
                 RAB2256E50 SLP059 P0001 60001 T00391006 10050 20033 56022 =
2017-11-18 17:51 METAR KPWM 182251Z 00000KT 10SM OVC070 04/M03 A2973 RMK AO2 SLP067 T00441028 =
2017-11-18 16:51 METAR KPWM 182151Z VRB03KT 10SM FEW060 OVC110 04/M05 A2974 RMK AO2 SLP072
                 T00391050 =
2017-11-18 15:51 METAR KPWM 182051Z 24003KT 10SM FEW060 SCT100 OVC170 04/M06 A2977 RMK AO2 SLP081
                 T00441061 56021 =
2017-11-18 14:51 METAR KPWM 181951Z 19008KT 10SM FEW060 SCT100 OVC180 04/M07 A2978 RMK AO2 SLP086
                 T00441072 =
2017-11-18 13:51 METAR KPWM 181851Z 16006KT 10SM OVC180 05/M03 A2979 RMK AO2 SLP088 T00501028 =
2017-11-18 12:51 METAR KPWM 181751Z 15009G18KT 10SM BKN150 OVC200 04/M03 A2983 RMK AO2 SLP102
                 T00441033 10044 21056 57038 =
2017-11-18 11:51 METAR KPWM 181651Z 16005KT 10SM SCT200 BKN250 03/M05 A2987 RMK AO2 SLP115
                 T00331050 =
2017-11-18 10:51 METAR KPWM 181551Z 18005KT 10SM SCT250 03/M06 A2991 RMK AO2 SLP128 T00331061 =
2017-11-18 09:51 METAR KPWM 181451Z VRB03KT 10SM SCT250 02/M09 A2994 RMK AO2 SLP141 T00171089
                 58003 =
2017-11-18 08:51 METAR KPWM 181351Z 22003KT 10SM SCT200 M01/M09 A2995 RMK AO2 SLP143 T10061089 =
2017-11-18 07:51 METAR KPWM 181251Z 00000KT 10SM CLR M03/M08 A2995 RMK AO2 SLP143 T10331083 =
2017-11-18 06:51 METAR KPWM 181151Z 21005KT 10SM FEW150 M06/M09 A2995 RMK AO2 SLP143 T10561089
                 11044 21061 53004 =
2017-11-18 05:51 METAR KPWM 181051Z 27003KT 10SM CLR M06/M09 A2994 RMK AO2 SLP140 T10611094 =
2017-11-18 04:51 METAR KPWM 180951Z 24003KT 10SM CLR M05/M09 A2995 RMK AO2 SLP142 T10501094 =
2017-11-18 03:51 METAR KPWM 180851Z AUTO 27005KT 10SM CLR M06/M09 A2994 RMK AO2 SLP139 T10561094
                 58006 =
2017-11-18 02:51 METAR KPWM 180751Z AUTO 26005KT 10SM CLR M05/M09 A2995 RMK AO2 SLP142 T10501089
                 =
2017-11-18 01:51 METAR KPWM 180651Z AUTO 27004KT 10SM CLR M04/M09 A2997 RMK AO2 SLP148 T10441089
                 =
2017-11-18 00:51 METAR KPWM 180551Z AUTO 27008KT 230V310 10SM CLR M05/M08 A2996 RMK AO2 SLP145
                 T10501078 11006 21056 58003 =
2017-11-17 23:51 METAR KPWM 180451Z VRB04KT 10SM CLR M05/M08 A2996 RMK AO2 SLP146 LAST T10501083
                 400561050 =
2017-11-17 22:51 METAR KPWM 180351Z 24006KT 10SM CLR M04/M07 A2996 RMK AO2 SLP148 T10441072 =

Support USWX by starting your Amazon purchase here.